sensor_id;sensor_type;location;lat;lon;timestamp;pressure;altitude;pressure_sealevel;temperature;humidity
49813;BME280;35706;52.100;5.056;2024-01-30T00:00:51;102536.38;;;9.57;100.00
49813;BME280;35706;52.100;5.056;2024-01-30T00:01:51;102531.63;;;9.64;100.00
49813;BME280;35706;52.100;5.056;2024-01-30T00:02:51;102535.00;;;9.66;100.00
49813;BME280;35706;52.100;5.056;2024-01-30T00:03:52;102528.41;;;9.58;100.00
49813;BME280;35706;52.100;5.056;2024-01-30T00:04:52;102525.22;;;9.53;100.00
49813;BME280;35706;52.100;5.056;2024-01-30T00:05:52;102529.16;;;9.61;100.00
49813;BME280;35706;52.100;5.056;2024-01-30T00:06:52;102532.13;;;9.70;100.00
49813;BME280;35706;52.100;5.056;2024-01-30T00:07:53;102519.59;;;9.60;100.00
49813;BME280;35706;52.100;5.056;2024-01-30T00:08:53;102518.41;;;9.65;100.00
49813;BME280;35706;52.100;5.056;2024-01-30T00:09:54;102517.75;;;9.62;100.00
49813;BME280;35706;52.100;5.056;2024-01-30T00:10:54;102525.16;;;9.69;100.00
49813;BME280;35706;52.100;5.056;2024-01-30T00:11:55;102518.09;;;9.55;100.00
49813;BME280;35706;52.100;5.056;2024-01-30T00:12:55;102517.38;;;9.68;100.00
49813;BME280;35706;52.100;5.056;2024-01-30T00:13:56;102516.84;;;9.77;100.00
49813;BME280;35706;52.100;5.056;2024-01-30T00:14:56;102521.81;;;9.67;100.00
49813;BME280;35706;52.100;5.056;2024-01-30T00:15:56;102515.19;;;9.60;100.00
49813;BME280;35706;52.100;5.056;2024-01-30T00:16:57;102518.94;;;9.56;100.00
49813;BME280;35706;52.100;5.056;2024-01-30T00:17:57;102525.34;;;9.66;100.00
49813;BME280;35706;52.100;5.056;2024-01-30T00:18:57;102515.38;;;9.57;100.00
49813;BME280;35706;52.100;5.056;2024-01-30T00:19:58;102514.50;;;9.72;100.00
49813;BME280;35706;52.100;5.056;2024-01-30T00:20:58;102513.72;;;9.70;100.00
49813;BME280;35706;52.100;5.056;2024-01-30T00:21:58;102512.50;;;9.62;100.00
49813;BME280;35706;52.100;5.056;2024-01-30T00:22:59;102518.03;;;9.71;100.00
49813;BME280;35706;52.100;5.056;2024-01-30T00:23:59;102521.28;;;9.61;100.00
49813;BME280;35706;52.100;5.056;2024-01-30T00:25:00;102520.78;;;9.70;100.00
49813;BME280;35706;52.100;5.056;2024-01-30T00:26:00;102512.78;;;9.71;100.00
49813;BME280;35706;52.100;5.056;2024-01-30T00:27:01;102517.75;;;9.62;100.00
49813;BME280;35706;52.100;5.056;2024-01-30T00:28:01;102520.53;;;9.58;100.00
49813;BME280;35706;52.100;5.056;2024-01-30T00:29:01;102508.06;;;9.62;100.00
49813;BME280;35706;52.100;5.056;2024-01-30T00:30:02;102512.03;;;9.69;100.00
49813;BME280;35706;52.100;5.056;2024-01-30T00:31:03;102510.06;;;9.73;100.00
49813;BME280;35706;52.100;5.056;2024-01-30T00:32:03;102500.06;;;9.79;100.00
49813;BME280;35706;52.100;5.056;2024-01-30T00:33:04;102507.59;;;9.55;100.00
49813;BME280;35706;52.100;5.056;2024-01-30T00:34:04;102508.75;;;9.66;100.00
49813;BME280;35706;52.100;5.056;2024-01-30T00:35:05;102510.63;;;9.64;100.00
49813;BME280;35706;52.100;5.056;2024-01-30T00:36:06;102510.06;;;9.73;100.00
49813;BME280;35706;52.100;5.056;2024-01-30T00:37:06;102512.25;;;9.81;100.00
49813;BME280;35706;52.100;5.056;2024-01-30T00:38:07;102514.09;;;9.64;100.00
49813;BME280;35706;52.100;5.056;2024-01-30T00:39:08;102513.19;;;9.79;100.00
49813;BME280;35706;52.100;5.056;2024-01-30T00:40:10;102510.91;;;9.73;100.00
49813;BME280;35706;52.100;5.056;2024-01-30T00:41:17;102506.59;;;9.72;100.00
49813;BME280;35706;52.100;5.056;2024-01-30T00:42:17;102505.44;;;9.62;100.00
49813;BME280;35706;52.100;5.056;2024-01-30T00:43:18;102514.16;;;9.63;100.00
49813;BME280;35706;52.100;5.056;2024-01-30T00:44:18;102509.25;;;9.56;100.00
49813;BME280;35706;52.100;5.056;2024-01-30T00:45:18;102506.84;;;9.53;100.00
49813;BME280;35706;52.100;5.056;2024-01-30T00:46:19;102516.09;;;9.75;100.00
49813;BME280;35706;52.100;5.056;2024-01-30T00:47:19;102517.28;;;9.69;100.00
49813;BME280;35706;52.100;5.056;2024-01-30T00:48:20;102507.25;;;9.62;100.00
49813;BME280;35706;52.100;5.056;2024-01-30T00:49:20;102509.78;;;9.63;100.00
49813;BME280;35706;52.100;5.056;2024-01-30T00:50:21;102514.16;;;9.63;100.00
49813;BME280;35706;52.100;5.056;2024-01-30T00:51:21;102508.91;;;9.63;100.00
49813;BME280;35706;52.100;5.056;2024-01-30T00:52:21;102508.25;;;9.59;100.00
49813;BME280;35706;52.100;5.056;2024-01-30T00:53:21;102508.16;;;9.61;100.00
49813;BME280;35706;52.100;5.056;2024-01-30T00:54:22;102511.47;;;9.64;100.00
49813;BME280;35706;52.100;5.056;2024-01-30T00:55:22;102513.31;;;9.62;100.00
49813;BME280;35706;52.100;5.056;2024-01-30T00:56:22;102503.91;;;9.74;100.00
49813;BME280;35706;52.100;5.056;2024-01-30T00:57:24;102504.81;;;9.73;100.00
49813;BME280;35706;52.100;5.056;2024-01-30T00:58:24;102504.06;;;9.71;100.00
49813;BME280;35706;52.100;5.056;2024-01-30T00:59:24;102508.47;;;9.70;100.00
49813;BME280;35706;52.100;5.056;2024-01-30T01:00:25;102492.72;;;9.70;100.00
49813;BME280;35706;52.100;5.056;2024-01-30T01:01:29;102491.00;;;9.69;100.00
49813;BME280;35706;52.100;5.056;2024-01-30T01:02:29;102496.84;;;9.74;100.00
49813;BME280;35706;52.100;5.056;2024-01-30T01:03:29;102491.63;;;9.74;100.00
49813;BME280;35706;52.100;5.056;2024-01-30T01:04:30;102480.50;;;9.69;100.00
49813;BME280;35706;52.100;5.056;2024-01-30T01:05:30;102476.88;;;9.72;100.00
49813;BME280;35706;52.100;5.056;2024-01-30T01:06:30;102479.03;;;9.65;100.00
49813;BME280;35706;52.100;5.056;2024-01-30T01:07:31;102474.81;;;9.77;100.00
49813;BME280;35706;52.100;5.056;2024-01-30T01:08:31;102479.50;;;9.72;100.00
49813;BME280;35706;52.100;5.056;2024-01-30T01:09:31;102480.63;;;9.68;100.00
49813;BME280;35706;52.100;5.056;2024-01-30T01:10:32;102474.53;;;9.67;100.00
49813;BME280;35706;52.100;5.056;2024-01-30T01:11:32;102482.13;;;9.72;100.00
49813;BME280;35706;52.100;5.056;2024-01-30T01:12:33;102481.09;;;9.74;100.00
49813;BME280;35706;52.100;5.056;2024-01-30T01:13:33;102487.38;;;9.72;100.00
49813;BME280;35706;52.100;5.056;2024-01-30T01:14:33;102484.72;;;9.57;100.00
49813;BME280;35706;52.100;5.056;2024-01-30T01:15:36;102490.00;;;9.72;100.00
49813;BME280;35706;52.100;5.056;2024-01-30T01:16:37;102488.78;;;9.77;100.00
49813;BME280;35706;52.100;5.056;2024-01-30T01:17:38;102475.59;;;9.49;100.00
49813;BME280;35706;52.100;5.056;2024-01-30T01:18:39;102501.44;;;9.71;100.00
49813;BME280;35706;52.100;5.056;2024-01-30T01:19:39;102493.72;;;9.53;100.00
49813;BME280;35706;52.100;5.056;2024-01-30T01:20:39;102491.75;;;9.57;100.00
49813;BME280;35706;52.100;5.056;2024-01-30T01:21:40;102491.66;;;9.58;100.00
49813;BME280;35706;52.100;5.056;2024-01-30T01:22:40;102483.69;;;9.60;100.00
49813;BME280;35706;52.100;5.056;2024-01-30T01:23:40;102481.91;;;9.61;100.00
49813;BME280;35706;52.100;5.056;2024-01-30T01:24:41;102494.03;;;9.63;100.00
49813;BME280;35706;52.100;5.056;2024-01-30T01:25:41;102493.44;;;9.58;100.00
49813;BME280;35706;52.100;5.056;2024-01-30T01:26:41;102496.34;;;9.53;100.00
49813;BME280;35706;52.100;5.056;2024-01-30T01:27:42;102489.38;;;9.52;100.00
49813;BME280;35706;52.100;5.056;2024-01-30T01:28:43;102493.72;;;9.37;100.00
49813;BME280;35706;52.100;5.056;2024-01-30T01:29:43;102501.09;;;9.47;100.00
49813;BME280;35706;52.100;5.056;2024-01-30T01:30:44;102489.84;;;9.45;100.00
49813;BME280;35706;52.100;5.056;2024-01-30T01:31:44;102490.50;;;9.48;100.00
49813;BME280;35706;52.100;5.056;2024-01-30T01:32:44;102490.06;;;9.56;100.00
49813;BME280;35706;52.100;5.056;2024-01-30T01:33:50;102494.31;;;9.73;100.00
49813;BME280;35706;52.100;5.056;2024-01-30T01:34:50;102486.50;;;9.57;100.00
49813;BME280;35706;52.100;5.056;2024-01-30T01:35:51;102491.75;;;9.57;100.00
49813;BME280;35706;52.100;5.056;2024-01-30T01:36:51;102478.00;;;9.68;100.00
49813;BME280;35706;52.100;5.056;2024-01-30T01:37:52;102482.66;;;9.63;100.00
49813;BME280;35706;52.100;5.056;2024-01-30T01:38:55;102482.56;;;9.64;100.00
49813;BME280;35706;52.100;5.056;2024-01-30T01:39:56;102484.81;;;9.56;100.00
49813;BME280;35706;52.100;5.056;2024-01-30T01:40:56;102479.81;;;9.51;100.00
49813;BME280;35706;52.100;5.056;2024-01-30T01:41:56;102475.53;;;9.50;100.00
49813;BME280;35706;52.100;5.056;2024-01-30T01:42:57;102474.66;;;9.50;100.00
49813;BME280;35706;52.100;5.056;2024-01-30T01:43:57;102471.47;;;9.45;100.00
49813;BME280;35706;52.100;5.056;2024-01-30T01:44:58;102479.69;;;9.38;100.00
49813;BME280;35706;52.100;5.056;2024-01-30T01:45:58;102477.91;;;9.39;100.00
49813;BME280;35706;52.100;5.056;2024-01-30T01:46:59;102477.28;;;9.50;100.00
49813;BME280;35706;52.100;5.056;2024-01-30T01:47:59;102471.31;;;9.62;100.00
49813;BME280;35706;52.100;5.056;2024-01-30T01:49:00;102477.75;;;9.56;100.00
49813;BME280;35706;52.100;5.056;2024-01-30T01:50:02;102472.03;;;9.50;100.00
49813;BME280;35706;52.100;5.056;2024-01-30T01:51:03;102474.38;;;9.54;100.00
49813;BME280;35706;52.100;5.056;2024-01-30T01:52:04;102465.75;;;9.52;100.00
49813;BME280;35706;52.100;5.056;2024-01-30T01:53:07;102462.97;;;9.55;100.00
49813;BME280;35706;52.100;5.056;2024-01-30T01:54:08;102460.47;;;9.38;100.00
49813;BME280;35706;52.100;5.056;2024-01-30T01:55:09;102464.84;;;9.23;100.00
49813;BME280;35706;52.100;5.056;2024-01-30T01:56:10;102474.44;;;9.38;100.00
49813;BME280;35706;52.100;5.056;2024-01-30T01:57:10;102472.09;;;9.34;100.00
49813;BME280;35706;52.100;5.056;2024-01-30T01:58:11;102479.84;;;9.35;100.00
49813;BME280;35706;52.100;5.056;2024-01-30T01:59:13;102473.94;;;9.32;100.00
49813;BME280;35706;52.100;5.056;2024-01-30T02:00:14;102472.91;;;9.34;100.00
49813;BME280;35706;52.100;5.056;2024-01-30T02:01:14;102469.81;;;9.28;100.00
49813;BME280;35706;52.100;5.056;2024-01-30T02:02:17;102471.19;;;9.49;100.00
49813;BME280;35706;52.100;5.056;2024-01-30T02:03:19;102472.66;;;9.39;100.00
49813;BME280;35706;52.100;5.056;2024-01-30T02:04:21;102471.75;;;9.40;100.00
49813;BME280;35706;52.100;5.056;2024-01-30T02:05:22;102458.16;;;9.48;100.00
49813;BME280;35706;52.100;5.056;2024-01-30T02:06:22;102470.38;;;9.33;100.00
49813;BME280;35706;52.100;5.056;2024-01-30T02:07:23;102474.09;;;9.45;100.00
49813;BME280;35706;52.100;5.056;2024-01-30T02:08:24;102471.63;;;9.42;100.00
49813;BME280;35706;52.100;5.056;2024-01-30T02:09:24;102469.81;;;9.58;100.00
49813;BME280;35706;52.100;5.056;2024-01-30T02:10:25;102486.63;;;9.40;100.00
49813;BME280;35706;52.100;5.056;2024-01-30T02:11:25;102481.88;;;9.46;100.00
49813;BME280;35706;52.100;5.056;2024-01-30T02:12:25;102478.78;;;9.54;100.00
49813;BME280;35706;52.100;5.056;2024-01-30T02:13:26;102475.97;;;9.43;100.00
49813;BME280;35706;52.100;5.056;2024-01-30T02:14:26;102478.63;;;9.57;100.00
49813;BME280;35706;52.100;5.056;2024-01-30T02:15:26;102480.22;;;9.60;100.00
49813;BME280;35706;52.100;5.056;2024-01-30T02:16:27;102469.59;;;9.47;100.00
49813;BME280;35706;52.100;5.056;2024-01-30T02:17:28;102474.25;;;9.42;100.00
49813;BME280;35706;52.100;5.056;2024-01-30T02:18:28;102482.09;;;9.57;100.00
49813;BME280;35706;52.100;5.056;2024-01-30T02:19:28;102483.47;;;9.49;100.00
49813;BME280;35706;52.100;5.056;2024-01-30T02:20:29;102483.06;;;9.41;100.00
49813;BME280;35706;52.100;5.056;2024-01-30T02:21:30;102494.09;;;9.31;100.00
49813;BME280;35706;52.100;5.056;2024-01-30T02:22:32;102492.31;;;9.32;100.00
49813;BME280;35706;52.100;5.056;2024-01-30T02:23:34;102486.81;;;9.21;100.00
49813;BME280;35706;52.100;5.056;2024-01-30T02:24:34;102493.44;;;9.28;100.00
49813;BME280;35706;52.100;5.056;2024-01-30T02:25:38;102488.75;;;9.33;100.00
49813;BME280;35706;52.100;5.056;2024-01-30T02:26:44;102484.19;;;9.21;100.00
49813;BME280;35706;52.100;5.056;2024-01-30T02:27:44;102481.56;;;9.36;100.00
49813;BME280;35706;52.100;5.056;2024-01-30T02:28:44;102469.88;;;9.42;100.00
49813;BME280;35706;52.100;5.056;2024-01-30T02:29:44;102469.94;;;9.41;100.00
49813;BME280;35706;52.100;5.056;2024-01-30T02:30:46;102454.19;;;9.41;100.00
49813;BME280;35706;52.100;5.056;2024-01-30T02:31:46;102458.81;;;9.51;100.00
49813;BME280;35706;52.100;5.056;2024-01-30T02:32:46;102449.63;;;9.44;100.00
49813;BME280;35706;52.100;5.056;2024-01-30T02:33:47;102449.03;;;9.39;100.00
49813;BME280;35706;52.100;5.056;2024-01-30T02:34:47;102446.88;;;9.46;100.00
49813;BME280;35706;52.100;5.056;2024-01-30T02:35:48;102463.00;;;9.40;100.00
49813;BME280;35706;52.100;5.056;2024-01-30T02:36:48;102455.13;;;9.40;100.00
49813;BME280;35706;52.100;5.056;2024-01-30T02:37:48;102464.63;;;9.56;100.00
49813;BME280;35706;52.100;5.056;2024-01-30T02:38:49;102453.25;;;9.42;100.00
49813;BME280;35706;52.100;5.056;2024-01-30T02:39:49;102461.75;;;9.31;100.00
49813;BME280;35706;52.100;5.056;2024-01-30T02:40:50;102461.00;;;9.29;100.00
49813;BME280;35706;52.100;5.056;2024-01-30T02:41:50;102458.00;;;9.35;100.00
49813;BME280;35706;52.100;5.056;2024-01-30T02:42:50;102458.34;;;9.45;100.00
49813;BME280;35706;52.100;5.056;2024-01-30T02:43:51;102462.84;;;9.43;100.00
49813;BME280;35706;52.100;5.056;2024-01-30T02:44:51;102462.22;;;9.37;100.00
49813;BME280;35706;52.100;5.056;2024-01-30T02:45:51;102442.38;;;9.33;100.00
49813;BME280;35706;52.100;5.056;2024-01-30T02:46:52;102446.13;;;9.44;100.00
49813;BME280;35706;52.100;5.056;2024-01-30T02:47:57;102445.97;;;9.47;100.00
49813;BME280;35706;52.100;5.056;2024-01-30T02:48:57;102450.34;;;9.32;100.00
49813;BME280;35706;52.100;5.056;2024-01-30T02:49:57;102452.19;;;9.30;100.00
49813;BME280;35706;52.100;5.056;2024-01-30T02:50:58;102453.22;;;9.27;100.00
49813;BME280;35706;52.100;5.056;2024-01-30T02:51:58;102454.63;;;9.33;100.00
49813;BME280;35706;52.100;5.056;2024-01-30T02:52:59;102454.75;;;9.31;100.00
49813;BME280;35706;52.100;5.056;2024-01-30T02:53:59;102452.34;;;9.43;100.00
49813;BME280;35706;52.100;5.056;2024-01-30T02:55:00;102452.78;;;9.35;100.00
49813;BME280;35706;52.100;5.056;2024-01-30T02:56:02;102459.03;;;9.32;100.00
49813;BME280;35706;52.100;5.056;2024-01-30T02:57:02;102461.09;;;9.27;100.00
49813;BME280;35706;52.100;5.056;2024-01-30T02:58:03;102457.59;;;9.43;100.00
49813;BME280;35706;52.100;5.056;2024-01-30T02:59:03;102450.91;;;9.37;100.00
49813;BME280;35706;52.100;5.056;2024-01-30T03:00:04;102456.91;;;9.09;100.00
49813;BME280;35706;52.100;5.056;2024-01-30T03:01:06;102450.59;;;9.27;100.00
49813;BME280;35706;52.100;5.056;2024-01-30T03:02:07;102451.38;;;9.44;100.00
49813;BME280;35706;52.100;5.056;2024-01-30T03:03:07;102452.59;;;9.38;100.00
49813;BME280;35706;52.100;5.056;2024-01-30T03:04:08;102445.72;;;9.35;100.00
49813;BME280;35706;52.100;5.056;2024-01-30T03:05:08;102436.84;;;9.38;100.00
49813;BME280;35706;52.100;5.056;2024-01-30T03:06:09;102444.09;;;9.49;100.00
49813;BME280;35706;52.100;5.056;2024-01-30T03:07:09;102438.59;;;9.53;100.00
49813;BME280;35706;52.100;5.056;2024-01-30T03:08:09;102438.09;;;9.47;100.00
49813;BME280;35706;52.100;5.056;2024-01-30T03:09:10;102443.28;;;9.32;100.00
49813;BME280;35706;52.100;5.056;2024-01-30T03:10:10;102430.59;;;9.41;100.00
49813;BME280;35706;52.100;5.056;2024-01-30T03:11:11;102441.88;;;9.27;100.00
49813;BME280;35706;52.100;5.056;2024-01-30T03:12:11;102446.81;;;9.17;100.00
49813;BME280;35706;52.100;5.056;2024-01-30T03:13:11;102443.72;;;9.41;100.00
49813;BME280;35706;52.100;5.056;2024-01-30T03:14:12;102442.00;;;9.40;100.00
49813;BME280;35706;52.100;5.056;2024-01-30T03:15:12;102435.63;;;9.44;100.00
49813;BME280;35706;52.100;5.056;2024-01-30T03:16:13;102441.09;;;9.41;100.00
49813;BME280;35706;52.100;5.056;2024-01-30T03:17:13;102443.50;;;9.44;100.00
49813;BME280;35706;52.100;5.056;2024-01-30T03:18:13;102436.53;;;9.28;100.00
49813;BME280;35706;52.100;5.056;2024-01-30T03:19:14;102442.63;;;9.29;100.00
49813;BME280;35706;52.100;5.056;2024-01-30T03:20:14;102437.38;;;9.29;100.00
49813;BME280;35706;52.100;5.056;2024-01-30T03:21:14;102442.28;;;9.35;100.00
49813;BME280;35706;52.100;5.056;2024-01-30T03:22:15;102443.66;;;9.26;100.00
49813;BME280;35706;52.100;5.056;2024-01-30T03:23:15;102431.16;;;9.15;100.00
49813;BME280;35706;52.100;5.056;2024-01-30T03:24:15;102423.81;;;9.36;100.00
49813;BME280;35706;52.100;5.056;2024-01-30T03:25:16;102424.50;;;9.40;100.00
49813;BME280;35706;52.100;5.056;2024-01-30T03:26:16;102425.69;;;9.34;100.00
49813;BME280;35706;52.100;5.056;2024-01-30T03:27:16;102420.34;;;9.36;100.00
49813;BME280;35706;52.100;5.056;2024-01-30T03:28:17;102417.13;;;9.31;100.00
49813;BME280;35706;52.100;5.056;2024-01-30T03:29:17;102411.72;;;9.34;100.00
49813;BME280;35706;52.100;5.056;2024-01-30T03:30:17;102408.44;;;9.30;100.00
49813;BME280;35706;52.100;5.056;2024-01-30T03:31:18;102405.00;;;9.44;100.00
49813;BME280;35706;52.100;5.056;2024-01-30T03:32:18;102403.13;;;9.46;100.00
49813;BME280;35706;52.100;5.056;2024-01-30T03:33:18;102401.50;;;9.44;100.00
49813;BME280;35706;52.100;5.056;2024-01-30T03:34:19;102401.28;;;9.48;100.00
49813;BME280;35706;52.100;5.056;2024-01-30T03:35:19;102402.94;;;9.49;100.00
49813;BME280;35706;52.100;5.056;2024-01-30T03:36:19;102406.00;;;9.42;100.00
49813;BME280;35706;52.100;5.056;2024-01-30T03:37:20;102408.94;;;9.51;100.00
49813;BME280;35706;52.100;5.056;2024-01-30T03:38:20;102404.91;;;9.46;100.00
49813;BME280;35706;52.100;5.056;2024-01-30T03:39:20;102402.81;;;9.36;100.00
49813;BME280;35706;52.100;5.056;2024-01-30T03:40:21;102404.22;;;9.28;100.00
49813;BME280;35706;52.100;5.056;2024-01-30T03:41:21;102406.88;;;9.42;100.00
49813;BME280;35706;52.100;5.056;2024-01-30T03:42:21;102410.69;;;9.36;100.00
49813;BME280;35706;52.100;5.056;2024-01-30T03:43:22;102410.97;;;9.32;100.00
49813;BME280;35706;52.100;5.056;2024-01-30T03:44:22;102414.28;;;9.50;100.00
49813;BME280;35706;52.100;5.056;2024-01-30T03:45:23;102425.88;;;9.31;100.00
49813;BME280;35706;52.100;5.056;2024-01-30T03:46:23;102421.38;;;9.33;100.00
49813;BME280;35706;52.100;5.056;2024-01-30T03:47:24;102423.28;;;9.46;100.00
49813;BME280;35706;52.100;5.056;2024-01-30T03:48:24;102419.75;;;9.16;100.00
49813;BME280;35706;52.100;5.056;2024-01-30T03:49:25;102417.81;;;9.34;100.00
49813;BME280;35706;52.100;5.056;2024-01-30T03:50:26;102424.94;;;9.32;100.00
49813;BME280;35706;52.100;5.056;2024-01-30T03:51:26;102427.75;;;9.29;100.00
49813;BME280;35706;52.100;5.056;2024-01-30T03:52:27;102417.34;;;9.28;100.00
49813;BME280;35706;52.100;5.056;2024-01-30T03:53:27;102416.84;;;9.21;100.00
49813;BME280;35706;52.100;5.056;2024-01-30T03:54:27;102417.94;;;9.47;100.00
49813;BME280;35706;52.100;5.056;2024-01-30T03:55:27;102423.25;;;9.31;100.00
49813;BME280;35706;52.100;5.056;2024-01-30T03:56:28;102423.84;;;9.21;100.00
49813;BME280;35706;52.100;5.056;2024-01-30T03:57:28;102420.13;;;9.25;100.00
49813;BME280;35706;52.100;5.056;2024-01-30T03:58:29;102428.59;;;9.14;100.00
49813;BME280;35706;52.100;5.056;2024-01-30T03:59:29;102430.31;;;9.15;100.00
49813;BME280;35706;52.100;5.056;2024-01-30T04:00:30;102419.06;;;9.43;100.00
49813;BME280;35706;52.100;5.056;2024-01-30T04:01:30;102429.75;;;9.40;100.00
49813;BME280;35706;52.100;5.056;2024-01-30T04:02:30;102424.59;;;9.23;100.00
49813;BME280;35706;52.100;5.056;2024-01-30T04:03:30;102425.00;;;9.31;100.00
49813;BME280;35706;52.100;5.056;2024-01-30T04:04:31;102421.53;;;9.30;100.00
49813;BME280;35706;52.100;5.056;2024-01-30T04:05:31;102421.28;;;9.35;100.00
49813;BME280;35706;52.100;5.056;2024-01-30T04:06:32;102420.25;;;9.37;100.00
49813;BME280;35706;52.100;5.056;2024-01-30T04:07:32;102428.38;;;9.33;100.00
49813;BME280;35706;52.100;5.056;2024-01-30T04:08:32;102417.50;;;9.25;100.00
49813;BME280;35706;52.100;5.056;2024-01-30T04:09:32;102414.88;;;9.25;100.00
49813;BME280;35706;52.100;5.056;2024-01-30T04:10:33;102422.13;;;9.05;100.00
49813;BME280;35706;52.100;5.056;2024-01-30T04:11:34;102423.00;;;9.20;100.00
49813;BME280;35706;52.100;5.056;2024-01-30T04:12:34;102422.31;;;9.32;100.00
49813;BME280;35706;52.100;5.056;2024-01-30T04:13:34;102424.53;;;9.24;100.00
49813;BME280;35706;52.100;5.056;2024-01-30T04:14:39;102419.88;;;9.29;100.00
49813;BME280;35706;52.100;5.056;2024-01-30T04:15:40;102412.50;;;9.20;100.00
49813;BME280;35706;52.100;5.056;2024-01-30T04:16:40;102422.31;;;9.32;100.00
49813;BME280;35706;52.100;5.056;2024-01-30T04:17:40;102419.00;;;9.29;100.00
49813;BME280;35706;52.100;5.056;2024-01-30T04:18:41;102414.72;;;9.12;100.00
49813;BME280;35706;52.100;5.056;2024-01-30T04:19:41;102416.16;;;9.17;100.00
49813;BME280;35706;52.100;5.056;2024-01-30T04:20:41;102418.13;;;9.14;100.00
49813;BME280;35706;52.100;5.056;2024-01-30T04:21:41;102410.13;;;9.31;100.00
49813;BME280;35706;52.100;5.056;2024-01-30T04:22:43;102406.47;;;9.34;100.00
49813;BME280;35706;52.100;5.056;2024-01-30T04:23:44;102403.75;;;9.35;100.00
49813;BME280;35706;52.100;5.056;2024-01-30T04:24:44;102408.50;;;9.29;100.00
49813;BME280;35706;52.100;5.056;2024-01-30T04:25:45;102398.53;;;9.50;100.00
49813;BME280;35706;52.100;5.056;2024-01-30T04:26:45;102400.44;;;9.17;100.00
49813;BME280;35706;52.100;5.056;2024-01-30T04:27:45;102400.44;;;9.17;100.00
49813;BME280;35706;52.100;5.056;2024-01-30T04:28:46;102392.53;;;9.33;100.00
49813;BME280;35706;52.100;5.056;2024-01-30T04:29:46;102394.19;;;9.34;100.00
49813;BME280;35706;52.100;5.056;2024-01-30T04:30:46;102393.25;;;9.35;100.00
49813;BME280;35706;52.100;5.056;2024-01-30T04:31:47;102390.63;;;9.35;100.00
49813;BME280;35706;52.100;5.056;2024-01-30T04:32:47;102390.81;;;9.32;100.00
49813;BME280;35706;52.100;5.056;2024-01-30T04:33:47;102381.63;;;9.40;100.00
49813;BME280;35706;52.100;5.056;2024-01-30T04:34:48;102387.63;;;9.42;100.00
49813;BME280;35706;52.100;5.056;2024-01-30T04:35:48;102374.50;;;9.42;100.00
49813;BME280;35706;52.100;5.056;2024-01-30T04:36:48;102388.59;;;9.41;100.00
49813;BME280;35706;52.100;5.056;2024-01-30T04:37:49;102385.81;;;9.58;100.00
49813;BME280;35706;52.100;5.056;2024-01-30T04:38:49;102384.13;;;9.57;100.00
49813;BME280;35706;52.100;5.056;2024-01-30T04:39:49;102386.38;;;9.49;100.00
49813;BME280;35706;52.100;5.056;2024-01-30T04:40:49;102387.50;;;9.59;100.00
49813;BME280;35706;52.100;5.056;2024-01-30T04:41:50;102388.91;;;9.50;100.00
49813;BME280;35706;52.100;5.056;2024-01-30T04:42:50;102392.66;;;9.46;100.00
49813;BME280;35706;52.100;5.056;2024-01-30T04:43:50;102389.75;;;9.51;100.00
49813;BME280;35706;52.100;5.056;2024-01-30T04:44:51;102395.00;;;9.51;100.00
49813;BME280;35706;52.100;5.056;2024-01-30T04:45:51;102385.31;;;9.51;100.00
49813;BME280;35706;52.100;5.056;2024-01-30T04:46:51;102388.63;;;9.55;100.00
49813;BME280;35706;52.100;5.056;2024-01-30T04:47:52;102386.75;;;9.86;100.00
49813;BME280;35706;52.100;5.056;2024-01-30T04:48:52;102393.16;;;9.67;100.00
49813;BME280;35706;52.100;5.056;2024-01-30T04:49:52;102384.13;;;9.71;100.00
49813;BME280;35706;52.100;5.056;2024-01-30T04:50:53;102385.44;;;9.64;100.00
49813;BME280;35706;52.100;5.056;2024-01-30T04:51:53;102382.13;;;9.61;100.00
49813;BME280;35706;52.100;5.056;2024-01-30T04:52:53;102381.47;;;9.43;100.00
49813;BME280;35706;52.100;5.056;2024-01-30T04:53:54;102382.91;;;9.48;100.00
49813;BME280;35706;52.100;5.056;2024-01-30T04:54:55;102393.84;;;9.41;100.00
49813;BME280;35706;52.100;5.056;2024-01-30T04:55:55;102388.22;;;9.47;100.00
49813;BME280;35706;52.100;5.056;2024-01-30T04:56:55;102388.50;;;9.56;100.00
49813;BME280;35706;52.100;5.056;2024-01-30T04:57:56;102385.06;;;9.70;100.00
49813;BME280;35706;52.100;5.056;2024-01-30T04:58:56;102387.78;;;9.69;100.00
49813;BME280;35706;52.100;5.056;2024-01-30T04:59:56;102377.84;;;9.74;100.00
49813;BME280;35706;52.100;5.056;2024-01-30T05:00:57;102378.03;;;9.71;100.00
49813;BME280;35706;52.100;5.056;2024-01-30T05:01:57;102389.81;;;9.49;100.00
49813;BME280;35706;52.100;5.056;2024-01-30T05:02:57;102390.78;;;9.48;100.00
49813;BME280;35706;52.100;5.056;2024-01-30T05:03:57;102384.38;;;9.52;100.00
49813;BME280;35706;52.100;5.056;2024-01-30T05:04:58;102382.41;;;9.56;100.00
49813;BME280;35706;52.100;5.056;2024-01-30T05:05:58;102373.16;;;9.50;100.00
49813;BME280;35706;52.100;5.056;2024-01-30T05:06:58;102385.81;;;9.58;100.00
49813;BME280;35706;52.100;5.056;2024-01-30T05:07:59;102387.47;;;9.45;100.00
49813;BME280;35706;52.100;5.056;2024-01-30T05:08:59;102385.78;;;9.44;100.00
49813;BME280;35706;52.100;5.056;2024-01-30T05:09:59;102397.03;;;9.46;100.00
49813;BME280;35706;52.100;5.056;2024-01-30T05:11:00;102378.50;;;9.63;100.00
49813;BME280;35706;52.100;5.056;2024-01-30T05:12:02;102391.13;;;9.56;100.00
49813;BME280;35706;52.100;5.056;2024-01-30T05:13:02;102377.84;;;9.60;100.00
49813;BME280;35706;52.100;5.056;2024-01-30T05:14:03;102380.84;;;9.68;100.00
49813;BME280;35706;52.100;5.056;2024-01-30T05:15:03;102370.34;;;9.68;100.00
49813;BME280;35706;52.100;5.056;2024-01-30T05:16:04;102370.13;;;9.56;100.00
49813;BME280;35706;52.100;5.056;2024-01-30T05:17:05;102372.41;;;9.63;100.00